Time;durP1;ratioP1;P1;durP2;ratioP2;P2;SDS_P1;SDS_P2;PMS_P1;PMS_P2;Temp;Humidity;BMP_temperature;BMP_pressure;BME280_temperature;BME280_humidity;BME280_pressure;Samples;Min_cycle;Max_cycle;Signal;HPM_P1;HPM_P2
2021/06/04 00:01:14;;;;;;;7.45;5.30;;;;;;;16.23;100.00;96682.38;5041989;28;20197;-73
2021/06/04 00:03:41;;;;;;;7.63;5.10;;;;;;;16.23;100.00;96685.03;5040859;28;20221;-72
2021/06/04 00:06:08;;;;;;;8.20;4.80;;;;;;;16.13;100.00;96674.81;5040577;28;20201;-73
2021/06/04 00:08:35;;;;;;;10.10;4.68;;;;;;;16.20;100.00;96683.59;5038653;28;20624;-73
2021/06/04 00:11:04;;;;;;;10.50;4.82;;;;;;;16.20;100.00;96680.13;5040807;28;20583;-73
2021/06/04 00:13:34;;;;;;;7.07;4.85;;;;;;;16.32;100.00;96673.22;5040814;28;20225;-73
2021/06/04 00:16:04;;;;;;;8.98;4.78;;;;;;;16.23;100.00;96669.09;5040483;28;20212;-73
2021/06/04 00:18:33;;;;;;;9.15;5.10;;;;;;;16.30;100.00;96673.44;5040656;28;20209;-72
2021/06/04 00:21:00;;;;;;;7.65;4.70;;;;;;;16.29;100.00;96676.31;5040599;28;20307;-73
2021/06/04 00:23:26;;;;;;;7.28;4.75;;;;;;;16.11;100.00;96676.81;5040842;28;20220;-72
2021/06/04 00:25:52;;;;;;;7.03;5.38;;;;;;;16.09;100.00;96676.22;5039286;28;20571;-72
2021/06/04 00:28:18;;;;;;;9.57;5.55;;;;;;;15.91;100.00;96681.28;5040917;28;20205;-73
2021/06/04 00:30:45;;;;;;;8.57;5.80;;;;;;;16.00;100.00;96677.44;5041422;28;20288;-73
2021/06/04 00:33:11;;;;;;;10.38;5.90;;;;;;;16.01;100.00;96671.09;5040692;28;20252;-72
2021/06/04 00:35:40;;;;;;;10.60;5.70;;;;;;;16.09;100.00;96668.25;5039699;28;20205;-73
2021/06/04 00:38:07;;;;;;;8.52;5.15;;;;;;;16.01;100.00;96665.78;5039455;28;20207;-72
2021/06/04 00:40:36;;;;;;;8.52;5.05;;;;;;;15.79;100.00;96673.25;5039774;28;20225;-72
2021/06/04 00:43:02;;;;;;;7.45;5.50;;;;;;;15.94;100.00;96670.25;5040471;28;20370;-73
2021/06/04 00:45:32;;;;;;;10.00;6.13;;;;;;;16.03;100.00;96671.69;5040888;28;20220;-73
2021/06/04 00:47:58;;;;;;;8.73;5.43;;;;;;;16.08;100.00;96673.78;5040605;28;20202;-73
2021/06/04 00:50:28;;;;;;;10.70;5.78;;;;;;;16.06;100.00;96678.47;5040052;28;20694;-73
2021/06/04 00:52:57;;;;;;;8.57;5.80;;;;;;;16.03;100.00;96677.03;5040663;28;20232;-73
2021/06/04 00:55:24;;;;;;;9.57;6.05;;;;;;;16.03;100.00;96679.69;5039624;28;20223;-73
2021/06/04 00:57:51;;;;;;;7.95;5.28;;;;;;;16.14;100.00;96678.28;5041292;28;20247;-73
2021/06/04 01:00:23;;;;;;;8.05;5.75;;;;;;;16.12;100.00;96678.47;5039099;28;20225;-72
2021/06/04 01:02:50;;;;;;;14.10;5.53;;;;;;;16.19;100.00;96684.66;5039488;28;20217;-72
2021/06/04 01:05:17;;;;;;;9.60;6.07;;;;;;;15.99;100.00;96683.75;5038961;28;20197;-73
2021/06/04 01:07:50;;;;;;;8.23;6.10;;;;;;;16.10;100.00;96696.50;5037404;28;20742;-73
2021/06/04 01:10:26;;;;;;;9.63;6.25;;;;;;;16.17;100.00;96689.34;5041163;28;20208;-73
2021/06/04 01:13:02;;;;;;;9.85;5.70;;;;;;;16.16;100.00;96681.56;5040488;28;20221;-72
2021/06/04 01:15:41;;;;;;;9.35;6.20;;;;;;;16.24;100.00;96682.22;5039224;28;20235;-72
2021/06/04 01:18:10;;;;;;;8.60;5.68;;;;;;;16.14;100.00;96681.75;5038902;28;20204;-72
2021/06/04 01:20:41;;;;;;;10.57;5.60;;;;;;;16.08;100.00;96677.25;5039541;28;20225;-73
2021/06/04 01:23:33;;;;;;;10.15;5.50;;;;;;;16.14;100.00;96684.44;5038854;28;20255;-73
2021/06/04 01:26:04;;;;;;;12.13;6.07;;;;;;;16.09;100.00;96684.22;5030862;28;20217;-73
2021/06/04 01:28:33;;;;;;;9.02;5.93;;;;;;;16.22;100.00;96688.75;5038984;28;20208;-73
2021/06/04 01:31:06;;;;;;;9.73;5.13;;;;;;;16.00;100.00;96685.41;5039189;28;20247;-73
2021/06/04 01:33:38;;;;;;;13.02;5.60;;;;;;;15.88;100.00;96692.31;5039665;28;20232;-72
2021/06/04 01:36:06;;;;;;;8.55;5.93;;;;;;;16.01;100.00;96692.38;5039158;28;20201;-72
2021/06/04 01:38:37;;;;;;;8.57;5.78;;;;;;;16.04;100.00;96689.28;5038992;28;20209;-72
2021/06/04 01:41:07;;;;;;;7.43;6.00;;;;;;;16.03;100.00;96695.63;5038625;28;20573;-72
2021/06/04 01:43:38;;;;;;;8.85;5.80;;;;;;;16.06;100.00;96689.94;5039186;28;20228;-72
2021/06/04 01:46:09;;;;;;;10.25;5.20;;;;;;;15.98;100.00;96686.63;5038753;28;20208;-72
2021/06/04 01:48:40;;;;;;;9.98;6.00;;;;;;;15.85;100.00;96687.38;5040014;28;20205;-73
2021/06/04 01:51:13;;;;;;;10.60;6.15;;;;;;;16.00;100.00;96688.06;5040048;28;20275;-73
2021/06/04 01:53:43;;;;;;;13.95;6.00;;;;;;;16.10;100.00;96680.53;5039680;28;20220;-72
2021/06/04 01:56:16;;;;;;;9.45;6.20;;;;;;;16.16;100.00;96685.03;5037816;28;20205;-72
2021/06/04 01:58:46;;;;;;;9.88;6.28;;;;;;;16.18;100.00;96688.31;5039449;28;20204;-73
2021/06/04 02:01:17;;;;;;;13.68;5.93;;;;;;;16.18;100.00;96684.84;5038307;28;20221;-72
2021/06/04 02:03:44;;;;;;;8.93;5.95;;;;;;;16.19;100.00;96679.34;5038815;28;20580;-73
2021/06/04 02:06:10;;;;;;;9.10;6.00;;;;;;;16.05;100.00;96682.13;5037712;28;20212;-72
2021/06/04 02:08:40;;;;;;;12.20;5.95;;;;;;;16.14;100.00;96681.75;5037200;28;20205;-73
2021/06/04 02:14:32;;;;;;;11.10;5.70;;;;;;;15.99;100.00;96683.75;5034846;28;20280;-72
2021/06/04 02:17:20;;;;;;;8.65;5.88;;;;;;;15.96;100.00;96678.00;5038702;28;20208;-72
2021/06/04 02:19:56;;;;;;;14.27;6.40;;;;;;;16.06;100.00;96676.63;5038305;28;20225;-73
2021/06/04 02:22:27;;;;;;;10.93;7.03;;;;;;;16.02;100.00;96675.38;5039023;28;20225;-72
2021/06/04 02:25:01;;;;;;;9.77;6.72;;;;;;;16.14;100.00;96670.28;5038277;28;20193;-72
2021/06/04 02:27:32;;;;;;;9.77;7.10;;;;;;;16.09;100.00;96673.56;5038229;28;20197;-73
2021/06/04 02:30:06;;;;;;;13.23;6.78;;;;;;;16.15;100.00;96675.44;5038459;28;20209;-72
2021/06/04 02:32:39;;;;;;;11.10;6.90;;;;;;;16.07;100.00;96678.25;5038278;28;20217;-73
2021/06/04 02:35:10;;;;;;;10.02;6.93;;;;;;;16.02;100.00;96683.34;5037878;28;20208;-73
2021/06/04 02:37:40;;;;;;;10.32;6.93;;;;;;;16.03;100.00;96682.34;5038141;28;20878;-72
2021/06/04 02:40:12;;;;;;;13.65;7.22;;;;;;;16.08;100.00;96682.56;5037952;28;20283;-73
2021/06/04 02:42:42;;;;;;;12.38;7.18;;;;;;;16.10;100.00;96683.19;5038520;28;20225;-72
2021/06/04 02:45:16;;;;;;;12.48;7.70;;;;;;;16.12;100.00;96683.00;5037525;28;20197;-72
2021/06/04 02:47:47;;;;;;;15.38;7.68;;;;;;;16.08;100.00;96681.75;5038340;28;20202;-73
2021/06/04 02:50:23;;;;;;;12.93;7.57;;;;;;;16.14;100.00;96681.75;5037686;28;20231;-72
2021/06/04 02:52:49;;;;;;;9.35;6.68;;;;;;;16.17;100.00;96692.00;5038664;28;20223;-73
2021/06/04 02:55:19;;;;;;;13.07;7.30;;;;;;;16.09;100.00;96684.22;5037622;28;20212;-73
2021/06/04 02:57:45;;;;;;;11.88;7.63;;;;;;;16.10;100.00;96685.00;5038243;28;20279;-72
2021/06/04 03:00:21;;;;;;;10.98;7.43;;;;;;;16.00;100.00;96682.75;5037556;28;20217;-73
2021/06/04 03:02:48;;;;;;;11.05;6.85;;;;;;;15.86;100.00;96681.06;5037994;28;20224;-72
2021/06/04 03:05:20;;;;;;;11.43;7.30;;;;;;;15.83;100.00;96687.78;5037680;28;20243;-73
2021/06/04 03:07:47;;;;;;;9.07;7.32;;;;;;;15.86;100.00;96691.69;5035970;28;20201;-73
2021/06/04 03:10:20;;;;;;;11.68;7.75;;;;;;;15.97;100.00;96693.78;5039094;28;20287;-72
2021/06/04 03:12:49;;;;;;;12.25;7.60;;;;;;;16.05;100.00;96682.13;5038604;28;20253;-73
2021/06/04 03:15:22;;;;;;;8.45;6.57;;;;;;;16.07;100.00;96691.53;5036785;28;20264;-72
2021/06/04 03:17:48;;;;;;;10.55;7.25;;;;;;;16.07;100.00;96691.53;5038655;28;20201;-73
2021/06/04 03:20:18;;;;;;;10.50;7.00;;;;;;;16.16;100.00;96689.53;5037760;28;20225;-73
2021/06/04 03:22:44;;;;;;;13.70;7.78;;;;;;;16.19;100.00;96683.81;5037730;28;20225;-73
2021/06/04 03:25:16;;;;;;;13.63;6.88;;;;;;;16.11;100.00;96686.66;5036702;28;20205;-73
2021/06/04 03:27:42;;;;;;;11.20;7.22;;;;;;;16.11;100.00;96687.47;5038031;28;20288;-73
2021/06/04 03:30:10;;;;;;;15.73;8.38;;;;;;;16.10;100.00;96691.16;5038150;28;20205;-72
2021/06/04 03:32:37;;;;;;;10.82;7.80;;;;;;;16.08;100.00;96687.88;5037640;28;20958;-73
2021/06/04 03:35:05;;;;;;;13.70;7.85;;;;;;;16.07;100.00;96690.75;5037813;28;20679;-73
2021/06/04 03:37:31;;;;;;;11.70;8.65;;;;;;;16.10;100.00;96693.81;5037296;28;20284;-73
2021/06/04 03:39:57;;;;;;;11.30;8.35;;;;;;;16.16;100.00;96685.03;5037660;28;20221;-72
2021/06/04 03:42:28;;;;;;;13.13;9.60;;;;;;;16.24;100.00;96689.34;5036829;28;20227;-73
2021/06/04 03:44:54;;;;;;;12.82;9.48;;;;;;;16.29;100.00;96694.91;5037266;28;20207;-73
2021/06/04 03:47:20;;;;;;;14.90;10.93;;;;;;;16.18;100.00;96692.84;5036770;28;20220;-72
2021/06/04 03:49:48;;;;;;;18.60;11.48;;;;;;;16.20;100.00;96688.91;5037414;28;20202;-73
2021/06/04 03:52:20;;;;;;;13.02;9.95;;;;;;;16.21;100.00;96693.22;5036180;28;20213;-73
2021/06/04 03:54:49;;;;;;;15.98;9.90;;;;;;;16.31;100.00;96690.25;5037603;28;20201;-72
2021/06/04 03:57:22;;;;;;;12.75;9.57;;;;;;;16.37;100.00;96700.88;5041299;28;20198;-72
2021/06/04 03:59:48;;;;;;;14.02;10.60;;;;;;;16.33;100.00;96691.69;5040703;28;20221;-73
2021/06/04 04:02:17;;;;;;;12.57;8.90;;;;;;;16.33;100.00;96699.66;5041440;28;20258;-72
2021/06/04 04:04:43;;;;;;;15.45;10.77;;;;;;;16.38;100.00;96705.19;5041167;28;20694;-73
2021/06/04 04:07:13;;;;;;;13.73;10.20;;;;;;;16.43;100.00;96700.06;5037894;28;20667;-72
2021/06/04 04:09:39;;;;;;;12.98;10.45;;;;;;;16.53;100.00;96708.47;5042096;28;20217;-73
2021/06/04 04:12:06;;;;;;;17.08;10.70;;;;;;;16.56;100.00;96711.56;5041513;28;20212;-73
2021/06/04 04:14:32;;;;;;;14.32;10.68;;;;;;;16.50;100.00;96711.56;5041069;28;20744;-73
2021/06/04 04:16:58;;;;;;;12.00;9.45;;;;;;;16.51;100.00;96710.53;5040180;28;20197;-73
2021/06/04 04:19:26;;;;;;;13.18;10.32;;;;;;;16.57;100.00;96715.88;5040482;28;20560;-72
2021/06/04 04:21:55;;;;;;;13.15;9.93;;;;;;;16.57;100.00;96709.72;5040614;28;20203;-73
2021/06/04 04:24:25;;;;;;;16.90;10.82;;;;;;;16.60;100.00;96722.63;5041150;28;20225;-73
2021/06/04 04:26:52;;;;;;;14.93;11.23;;;;;;;16.62;100.00;96715.25;5040064;28;20201;-73
2021/06/04 04:29:18;;;;;;;14.82;10.65;;;;;;;16.68;100.00;96722.44;5040346;28;21096;-73
2021/06/04 04:31:46;;;;;;;15.18;10.95;;;;;;;16.66;100.00;96708.50;5041248;28;20263;-73
2021/06/04 04:34:13;;;;;;;11.85;9.18;;;;;;;16.68;100.00;96707.28;5040341;28;20263;-73
2021/06/04 04:36:42;;;;;;;16.38;10.93;;;;;;;16.71;100.00;96714.03;5039796;28;20208;-73
2021/06/04 04:39:11;;;;;;;17.08;11.15;;;;;;;16.65;100.00;96717.53;5040088;28;20205;-73
2021/06/04 04:41:38;;;;;;;17.67;11.20;;;;;;;16.65;100.00;96720.19;5039511;28;20248;-72
2021/06/04 04:44:05;;;;;;;16.02;11.95;;;;;;;16.62;100.00;96713.44;5040887;28;20243;-73
2021/06/04 04:46:31;;;;;;;17.30;11.07;;;;;;;16.68;100.00;96709.13;5039014;28;20303;-73
2021/06/04 04:48:58;;;;;;;13.30;10.57;;;;;;;16.72;100.00;96713.00;5040076;28;20208;-73
2021/06/04 04:51:26;;;;;;;14.73;10.73;;;;;;;16.78;100.00;96714.88;5040701;28;21390;-73
2021/06/04 04:53:52;;;;;;;16.42;10.38;;;;;;;16.84;100.00;96719.38;5040562;28;20217;-73
2021/06/04 04:56:19;;;;;;;14.27;10.52;;;;;;;16.89;100.00;96716.91;5039543;28;20197;-72
2021/06/04 04:58:46;;;;;;;13.27;9.98;;;;;;;16.93;100.00;96723.47;5040024;28;20209;-72
2021/06/04 05:01:14;;;;;;;16.02;11.07;;;;;;;16.96;100.00;96718.56;5039626;28;20737;-72
2021/06/04 05:03:40;;;;;;;16.73;10.10;;;;;;;17.01;100.00;96718.78;5039405;28;20225;-72
2021/06/04 05:06:07;;;;;;;13.60;9.73;;;;;;;17.06;100.00;96737.63;5039666;28;20208;-72
2021/06/04 05:08:34;;;;;;;15.15;9.15;;;;;;;17.17;100.00;96729.84;5037607;28;20197;-72
2021/06/04 05:11:00;;;;;;;15.88;9.02;;;;;;;17.24;100.00;96733.34;5039202;28;21135;-72
2021/06/04 05:13:26;;;;;;;14.80;9.70;;;;;;;17.34;100.00;96743.59;5039951;28;20275;-72
2021/06/04 05:15:54;;;;;;;16.05;9.88;;;;;;;17.46;100.00;96742.72;5039967;28;20678;-72
2021/06/04 05:18:19;;;;;;;12.80;9.27;;;;;;;17.52;100.00;96746.44;5039472;28;20216;-72
2021/06/04 05:20:47;;;;;;;14.52;9.38;;;;;;;17.52;100.00;96749.91;5039492;28;20252;-72
2021/06/04 05:23:17;;;;;;;12.15;9.43;;;;;;;17.53;100.00;96748.88;5039065;28;21237;-72
2021/06/04 05:25:46;;;;;;;16.77;9.40;;;;;;;17.46;100.00;96756.06;5038311;28;20254;-72
2021/06/04 05:28:14;;;;;;;12.93;9.57;;;;;;;17.52;100.00;96757.09;5039491;28;20207;-72
2021/06/04 05:30:42;;;;;;;11.68;9.10;;;;;;;17.59;100.00;96753.41;5039507;28;20220;-73
2021/06/04 05:33:12;;;;;;;16.13;9.75;;;;;;;17.71;100.00;96755.19;5039729;28;20225;-73
2021/06/04 05:35:39;;;;;;;12.48;9.15;;;;;;;17.80;100.00;96761.94;5039423;28;20198;-72
2021/06/04 05:38:05;;;;;;;12.77;9.02;;;;;;;17.86;100.00;96757.66;5038696;28;20262;-72
2021/06/04 05:40:35;;;;;;;13.43;9.95;;;;;;;17.89;100.00;96752.69;5040126;28;20225;-72
2021/06/04 05:43:02;;;;;;;14.07;9.73;;;;;;;17.99;100.00;96762.94;5038006;28;21063;-72
2021/06/04 05:45:31;;;;;;;11.98;9.10;;;;;;;18.03;100.00;96762.28;5037861;28;20205;-72
2021/06/04 05:47:58;;;;;;;12.77;9.70;;;;;;;17.87;100.00;96764.59;5039366;28;20263;-72
2021/06/04 05:50:30;;;;;;;14.38;9.60;;;;;;;17.98;100.00;96766.63;5039475;28;20610;-72
2021/06/04 05:52:56;;;;;;;13.85;9.75;;;;;;;18.01;100.00;96766.19;5039761;28;20232;-72
2021/06/04 05:55:25;;;;;;;14.80;9.57;;;;;;;17.98;100.00;96774.63;5037738;28;20205;-72
2021/06/04 05:57:52;;;;;;;16.90;10.15;;;;;;;18.10;100.00;96762.28;5039227;28;20205;-72
2021/06/04 06:00:23;;;;;;;16.00;10.77;;;;;;;18.11;100.00;96755.91;5038160;28;20255;-72
2021/06/04 06:02:50;;;;;;;18.23;10.55;;;;;;;18.18;100.00;96762.09;5038620;28;20217;-72
2021/06/04 06:05:16;;;;;;;13.88;10.00;;;;;;;18.21;100.00;96767.81;5037630;28;21138;-72
2021/06/04 06:07:43;;;;;;;15.70;9.82;;;;;;;18.18;100.00;96768.25;5036722;28;20212;-72
2021/06/04 06:10:10;;;;;;;15.25;10.50;;;;;;;18.25;100.00;96765.53;5039166;28;20198;-72
2021/06/04 06:12:37;;;;;;;16.63;11.07;;;;;;;18.33;100.00;96770.63;5039089;28;20221;-73
2021/06/04 06:15:05;;;;;;;15.20;11.10;;;;;;;18.28;100.00;96770.44;5038288;28;20209;-72
2021/06/04 06:17:32;;;;;;;16.75;11.07;;;;;;;18.36;100.00;96777.19;5039010;28;20212;-72
2021/06/04 06:19:58;;;;;;;20.02;11.27;;;;;;;18.41;100.00;96774.69;5037635;28;20221;-72
2021/06/04 06:22:24;;;;;;;13.70;10.80;;;;;;;18.33;100.00;96772.28;5038378;28;20229;-72
2021/06/04 06:24:51;;;;;;;16.90;11.82;;;;;;;18.37;100.00;96772.69;5038137;28;20197;-72
2021/06/04 06:27:18;;;;;;;16.48;10.98;;;;;;;18.53;100.00;96775.69;5038243;28;20201;-72
2021/06/04 06:29:43;;;;;;;17.02;11.90;;;;;;;18.53;100.00;96773.03;5038430;28;20847;-72
2021/06/04 06:32:11;;;;;;;16.77;11.77;;;;;;;18.70;100.00;96773.31;5038622;28;20211;-74
2021/06/04 06:34:38;;;;;;;17.23;11.75;;;;;;;18.82;100.00;96782.31;5038439;28;20251;-75
2021/06/04 06:37:04;;;;;;;16.83;10.20;;;;;;;18.94;100.00;96776.88;5038364;28;20198;-74
2021/06/04 06:39:33;;;;;;;15.93;11.13;;;;;;;19.01;100.00;96776.84;5036945;28;20205;-74
2021/06/04 06:42:03;;;;;;;15.95;10.98;;;;;;;19.09;100.00;96771.25;5038313;28;20300;-73
2021/06/04 06:44:31;;;;;;;15.32;10.85;;;;;;;19.13;100.00;96785.81;5039391;28;20205;-73
2021/06/04 06:46:57;;;;;;;13.85;10.32;;;;;;;19.16;100.00;96782.72;5037872;28;20212;-74
2021/06/04 06:49:25;;;;;;;15.10;9.93;;;;;;;19.21;100.00;96782.91;5037857;28;20213;-73
2021/06/04 06:51:51;;;;;;;15.25;10.50;;;;;;;19.30;100.00;96786.94;5036979;28;20209;-73
2021/06/04 06:54:20;;;;;;;16.15;10.73;;;;;;;19.31;100.00;96788.56;5038192;28;20392;-73
2021/06/04 06:56:47;;;;;;;15.43;9.90;;;;;;;19.39;100.00;96796.31;5037733;28;20735;-73
2021/06/04 06:59:15;;;;;;;11.88;9.60;;;;;;;19.53;100.00;96797.84;5037650;28;20205;-73
2021/06/04 07:01:41;;;;;;;13.23;9.27;;;;;;;19.64;100.00;96789.94;5037026;28;20244;-73
2021/06/04 07:04:07;;;;;;;14.65;9.75;;;;;;;19.80;100.00;96797.38;5039049;28;20217;-73
2021/06/04 07:06:36;;;;;;;8.43;6.20;;;;;;;19.92;96.83;96799.16;5036633;28;20255;-73
2021/06/04 07:09:06;;;;;;;14.35;9.15;;;;;;;19.96;99.29;96800.34;5035138;28;20584;-73
2021/06/04 07:11:35;;;;;;;17.13;9.35;;;;;;;20.00;99.59;96798.88;5038802;28;20197;-73
2021/06/04 07:14:02;;;;;;;13.63;9.75;;;;;;;20.01;99.44;96803.19;5038527;28;20247;-73
2021/06/04 07:16:30;;;;;;;13.15;9.00;;;;;;;20.17;98.85;96807.13;5036800;28;20315;-73
2021/06/04 07:18:56;;;;;;;14.80;9.05;;;;;;;20.13;97.85;96806.75;5037709;28;20205;-74
2021/06/04 07:21:25;;;;;;;12.88;8.68;;;;;;;20.24;97.02;96803.34;5037402;28;20235;-73
2021/06/04 07:23:51;;;;;;;12.77;8.65;;;;;;;20.39;96.41;96806.44;5036126;28;20221;-73
2021/06/04 07:26:18;;;;;;;15.18;8.90;;;;;;;20.46;94.42;96801.84;5037335;28;20205;-73
2021/06/04 07:28:45;;;;;;;13.25;9.48;;;;;;;20.50;96.15;96808.38;5037295;28;20212;-74
2021/06/04 07:31:14;;;;;;;13.88;9.60;;;;;;;20.46;96.16;96807.22;5039444;28;20201;-74
2021/06/04 07:33:44;;;;;;;18.45;9.18;;;;;;;20.69;95.60;96812.69;5040364;28;21093;-74
2021/06/04 07:36:12;;;;;;;11.65;8.93;;;;;;;20.74;92.12;96810.19;5040080;28;20205;-74
2021/06/04 07:38:39;;;;;;;12.80;7.93;;;;;;;20.92;91.67;96806.41;5041164;28;20205;-73
2021/06/04 07:41:06;;;;;;;13.50;8.80;;;;;;;20.88;91.75;96804.41;5041843;28;20236;-73
2021/06/04 07:43:35;;;;;;;14.10;9.40;;;;;;;21.07;91.58;96806.81;5041514;28;20217;-72
2021/06/04 07:46:02;;;;;;;13.13;9.77;;;;;;;21.05;90.59;96808.94;5039330;28;20197;-73
2021/06/04 07:48:28;;;;;;;15.50;9.27;;;;;;;21.19;92.74;96807.66;5041098;28;20201;-72
2021/06/04 07:50:58;;;;;;;17.52;9.07;;;;;;;21.18;88.34;96814.09;5041711;28;20276;-72
2021/06/04 07:53:28;;;;;;;13.40;9.27;;;;;;;21.12;90.21;96811.50;5038705;28;20274;-72
2021/06/04 07:55:55;;;;;;;12.07;9.48;;;;;;;21.23;92.49;96803.50;5039897;28;20204;-72
2021/06/04 07:58:21;;;;;;;14.05;8.95;;;;;;;21.35;91.14;96796.28;5040020;28;20232;-72
2021/06/04 08:00:47;;;;;;;16.90;9.27;;;;;;;21.51;90.16;96801.00;5040483;28;20271;-73
2021/06/04 08:03:17;;;;;;;12.80;8.77;;;;;;;21.69;87.85;96800.91;5039312;28;20707;-72
2021/06/04 08:05:43;;;;;;;15.70;9.05;;;;;;;21.64;88.42;96792.78;5039393;28;20201;-73
2021/06/04 08:08:10;;;;;;;14.50;9.02;;;;;;;21.61;89.51;96794.06;5040396;28;20212;-72
2021/06/04 08:10:38;;;;;;;12.95;8.82;;;;;;;21.78;90.96;96789.63;5040350;28;20243;-73
2021/06/04 08:13:05;;;;;;;14.50;8.38;;;;;;;21.73;89.37;96794.06;5039200;28;20389;-72
2021/06/04 08:15:35;;;;;;;13.02;8.40;;;;;;;21.91;89.22;96799.31;5039617;28;20273;-72
2021/06/04 08:18:02;;;;;;;17.35;8.85;;;;;;;21.87;90.17;96784.72;5040490;28;20202;-73
2021/06/04 08:20:31;;;;;;;10.88;7.80;;;;;;;22.00;90.15;96789.88;5040305;28;20229;-72
2021/06/04 08:23:01;;;;;;;13.30;8.75;;;;;;;22.03;86.76;96792.06;5041022;28;20228;-72
2021/06/04 08:25:31;;;;;;;14.68;8.80;;;;;;;22.11;86.48;96790.66;5039690;28;20212;-73
2021/06/04 08:27:57;;;;;;;15.23;8.60;;;;;;;22.27;86.66;96792.66;5039100;28;20227;-73
2021/06/04 08:30:25;;;;;;;12.90;7.53;;;;;;;22.18;87.25;96795.91;5040580;28;20560;-73
2021/06/04 08:32:51;;;;;;;12.30;8.00;;;;;;;22.20;86.69;96793.81;5040841;28;20221;-72
2021/06/04 08:35:18;;;;;;;15.32;7.40;;;;;;;22.24;86.21;96795.78;5040383;28;20251;-73
2021/06/04 08:37:44;;;;;;;12.00;7.32;;;;;;;22.25;83.00;96796.59;5040682;28;20205;-73
2021/06/04 08:40:15;;;;;;;13.23;7.60;;;;;;;22.33;81.76;96794.41;5039979;28;20225;-72
2021/06/04 08:42:59;;;;;;;12.60;7.22;;;;;;;22.34;80.87;96796.03;5038759;28;20702;-72
2021/06/04 08:45:34;;;;;;;11.48;7.82;;;;;;;22.31;80.79;96793.84;5039801;28;20201;-72
2021/06/04 08:48:12;;;;;;;12.48;7.78;;;;;;;22.32;80.79;96792.75;5040057;28;20231;-73
2021/06/04 08:50:48;;;;;;;10.98;6.85;;;;;;;22.29;82.39;96793.25;5039782;28;20660;-73
2021/06/04 08:53:21;;;;;;;10.88;6.68;;;;;;;22.45;83.74;96792.50;5038764;28;20220;-73
2021/06/04 08:55:57;;;;;;;9.48;6.88;;;;;;;22.57;82.61;96797.84;5038753;28;20198;-73
2021/06/04 08:58:36;;;;;;;15.82;7.22;;;;;;;22.53;80.68;96794.84;5039142;28;20201;-73
2021/06/04 09:01:04;;;;;;;8.80;6.25;;;;;;;22.67;77.73;96801.56;5039744;28;20264;-73
2021/06/04 09:03:36;;;;;;;8.07;6.38;;;;;;;23.07;79.13;96799.69;5040348;28;20225;-73
2021/06/04 09:06:07;;;;;;;10.68;6.72;;;;;;;23.25;78.71;96797.59;5039617;28;20204;-73
2021/06/04 09:08:36;;;;;;;8.85;6.15;;;;;;;23.22;76.76;96795.41;5040304;28;20201;-73
2021/06/04 09:11:08;;;;;;;9.55;6.90;;;;;;;23.25;77.00;96788.72;5039930;28;20251;-73
2021/06/04 09:13:38;;;;;;;9.50;6.32;;;;;;;23.37;77.55;96793.81;5039198;28;20228;-73
2021/06/04 09:16:07;;;;;;;10.85;6.07;;;;;;;23.60;80.66;96785.59;5038729;28;20274;-73
2021/06/04 09:18:40;;;;;;;10.10;6.28;;;;;;;23.48;73.65;96787.50;5038837;28;20216;-73
2021/06/04 09:21:12;;;;;;;11.38;5.70;;;;;;;23.65;76.25;96790.22;5039922;28;20267;-73
2021/06/04 09:23:41;;;;;;;13.93;6.40;;;;;;;23.68;77.10;96779.78;5038756;28;20221;-73
2021/06/04 09:26:08;;;;;;;9.82;5.57;;;;;;;23.99;73.59;96792.69;5038671;28;20213;-73
2021/06/04 09:28:46;;;;;;;10.48;6.35;;;;;;;24.52;71.11;96788.34;5040148;28;20216;-73
2021/06/04 09:31:22;;;;;;;10.55;5.88;;;;;;;24.81;70.03;96790.59;5039146;28;20291;-73
2021/06/04 09:33:50;;;;;;;13.68;5.40;;;;;;;24.59;68.13;96788.97;5039642;28;21070;-73
2021/06/04 09:36:18;;;;;;;9.23;5.43;;;;;;;24.54;68.75;96788.09;5038326;28;20594;-73
2021/06/04 09:38:47;;;;;;;11.00;5.22;;;;;;;24.88;68.76;96780.44;5039588;28;20197;-73
2021/06/04 09:41:30;;;;;;;8.00;4.97;;;;;;;24.90;68.69;96775.59;5039381;28;20312;-73
2021/06/04 09:44:13;;;;;;;7.60;5.15;;;;;;;25.27;64.55;96765.78;5038572;28;20268;-73
2021/06/04 09:46:49;;;;;;;8.80;5.80;;;;;;;25.52;67.64;96760.59;5038522;28;20216;-73
2021/06/04 09:49:30;;;;;;;6.68;5.03;;;;;;;25.51;65.52;96756.25;5039205;28;20287;-73
2021/06/04 09:52:15;;;;;;;9.60;4.93;;;;;;;25.42;67.34;96753.25;5039388;28;20206;-73
2021/06/04 09:54:42;;;;;;;10.15;4.82;;;;;;;25.09;66.47;96751.81;5037767;28;20205;-73
2021/06/04 09:57:11;;;;;;;6.05;5.18;;;;;;;25.21;65.25;96762.19;5038463;28;20197;-73
2021/06/04 09:59:39;;;;;;;7.07;4.43;;;;;;;25.35;67.63;96752.63;5038663;28;20220;-73
2021/06/04 10:02:29;;;;;;;9.23;4.78;;;;;;;25.39;65.32;96751.06;5037887;28;20221;-73
2021/06/04 10:05:11;;;;;;;4.88;4.03;;;;;;;25.57;65.53;96745.28;5038876;28;20284;-73
2021/06/04 10:07:37;;;;;;;5.18;3.67;;;;;;;25.61;61.26;96757.19;5038885;28;20201;-73
2021/06/04 10:10:11;;;;;;;7.53;4.18;;;;;;;25.86;58.66;96750.13;5038842;28;20205;-73
2021/06/04 10:12:44;;;;;;;8.90;4.25;;;;;;;25.64;59.61;96756.66;5038281;28;20228;-73
2021/06/04 10:15:22;;;;;;;8.70;4.70;;;;;;;25.50;62.04;96749.25;5038168;28;20209;-73
2021/06/04 10:18:00;;;;;;;6.38;3.80;;;;;;;25.63;62.08;96746.13;5040111;28;20197;-72
2021/06/04 10:20:45;;;;;;;6.00;3.65;;;;;;;25.69;63.13;96740.50;5038924;28;20223;-73
2021/06/04 10:23:21;;;;;;;4.47;3.78;;;;;;;25.67;63.26;96741.84;5038808;28;20997;-75
2021/06/04 10:25:51;;;;;;;7.50;3.72;;;;;;;26.01;60.37;96744.00;5037796;28;20200;-71
2021/06/04 10:28:38;;;;;;;7.85;4.20;;;;;;;26.26;60.13;96738.72;5038216;28;20205;-71
2021/06/04 10:31:27;;;;;;;7.53;4.57;;;;;;;26.48;58.11;96737.53;5037566;28;20197;-72
2021/06/04 10:34:02;;;;;;;9.25;4.22;;;;;;;26.68;60.48;96737.59;5037694;28;20253;-71
2021/06/04 10:36:33;;;;;;;4.38;2.78;;;;;;;26.79;55.28;96742.78;5037561;28;20205;-71
2021/06/04 10:39:07;;;;;;;8.65;3.67;;;;;;;26.65;54.93;96749.75;5038360;28;20216;-71
2021/06/04 10:41:43;;;;;;;9.13;3.85;;;;;;;26.60;58.82;96746.22;5037468;28;20638;-71
2021/06/04 10:44:15;;;;;;;6.40;2.50;;;;;;;26.70;51.59;96730.03;5038615;28;20217;-71
2021/06/04 10:46:48;;;;;;;5.63;2.80;;;;;;;27.23;55.17;96723.16;5038307;28;20208;-71
2021/06/04 10:49:26;;;;;;;6.65;2.38;;;;;;;27.10;60.08;96737.22;5036930;28;20204;-71
2021/06/04 10:51:56;;;;;;;5.45;2.65;;;;;;;27.40;54.81;96733.75;5039118;28;20383;-71
2021/06/04 10:54:37;;;;;;;6.30;2.80;;;;;;;27.34;51.06;96732.09;5038108;28;20241;-71
2021/06/04 10:57:09;;;;;;;6.45;3.42;;;;;;;27.45;51.53;96729.13;5036157;28;20662;-71
2021/06/04 10:59:44;;;;;;;4.05;2.53;;;;;;;27.29;52.87;96732.09;5037792;28;20209;-71
2021/06/04 11:02:19;;;;;;;6.45;2.60;;;;;;;27.52;50.70;96724.28;5037528;28;20221;-71
2021/06/04 11:04:59;;;;;;;4.13;2.60;;;;;;;27.69;51.98;96733.75;5037839;28;20211;-71
2021/06/04 11:07:31;;;;;;;5.47;2.75;;;;;;;27.85;51.55;96729.13;5042765;28;20354;-72
2021/06/04 11:10:06;;;;;;;6.70;2.72;;;;;;;27.89;54.16;96719.38;5042261;28;20216;-71
2021/06/04 11:13:02;;;;;;;5.45;2.50;;;;;;;27.57;49.30;96727.03;5041508;28;20223;-72
2021/06/04 11:15:44;;;;;;;6.25;2.65;;;;;;;27.55;50.83;96718.31;5040790;28;20290;-72
2021/06/04 11:18:29;;;;;;;3.35;2.20;;;;;;;27.36;54.04;96728.03;5041738;28;20205;-71
2021/06/04 11:20:59;;;;;;;4.00;2.22;;;;;;;26.40;55.23;96756.97;5041536;28;20893;-71
2021/06/04 11:23:30;;;;;;;6.78;2.28;;;;;;;24.98;59.61;96771.66;5040289;28;20247;-72
2021/06/04 11:25:59;;;;;;;5.05;2.30;;;;;;;24.11;62.54;96766.50;5041176;28;20220;-72
2021/06/04 11:28:38;;;;;;;6.80;1.98;;;;;;;23.49;63.46;96780.28;5040736;28;20718;-71
2021/06/04 11:31:08;;;;;;;4.82;1.70;;;;;;;22.93;62.85;96790.25;5041674;28;20476;-73
2021/06/04 11:33:38;;;;;;;5.50;1.85;;;;;;;22.57;63.80;96795.16;5042020;28;20244;-74
2021/06/04 11:36:14;;;;;;;4.78;1.25;;;;;;;22.14;64.18;96790.19;5039388;28;20213;-74
2021/06/04 11:38:44;;;;;;;5.45;2.10;;;;;;;21.95;66.34;96795.09;5040225;28;20197;-74